sensor_id;sensor_type;location;lat;lon;timestamp;P1;durP1;ratioP1;P2;durP2;ratioP2
50417;SDS011;36346;48.280;14.292;2023-05-29T00:01:12;8.79;;;8.75;;
50417;SDS011;36346;48.280;14.292;2023-05-29T00:03:40;8.76;;;8.76;;
50417;SDS011;36346;48.280;14.292;2023-05-29T00:06:08;8.63;;;8.63;;
50417;SDS011;36346;48.280;14.292;2023-05-29T00:08:36;8.86;;;8.85;;
50417;SDS011;36346;48.280;14.292;2023-05-29T00:11:04;8.71;;;8.67;;
50417;SDS011;36346;48.280;14.292;2023-05-29T00:13:32;8.42;;;8.40;;
50417;SDS011;36346;48.280;14.292;2023-05-29T00:16:00;8.12;;;8.09;;
50417;SDS011;36346;48.280;14.292;2023-05-29T00:18:28;8.65;;;8.62;;
50417;SDS011;36346;48.280;14.292;2023-05-29T00:20:56;9.06;;;9.02;;
50417;SDS011;36346;48.280;14.292;2023-05-29T00:23:25;8.78;;;8.74;;
50417;SDS011;36346;48.280;14.292;2023-05-29T00:25:53;8.93;;;8.89;;
50417;SDS011;36346;48.280;14.292;2023-05-29T00:28:21;8.94;;;8.90;;
50417;SDS011;36346;48.280;14.292;2023-05-29T00:30:49;8.77;;;8.74;;
50417;SDS011;36346;48.280;14.292;2023-05-29T00:33:17;8.24;;;8.21;;
50417;SDS011;36346;48.280;14.292;2023-05-29T00:35:46;8.36;;;8.34;;
50417;SDS011;36346;48.280;14.292;2023-05-29T00:38:15;8.48;;;8.47;;
50417;SDS011;36346;48.280;14.292;2023-05-29T00:40:43;8.43;;;8.40;;
50417;SDS011;36346;48.280;14.292;2023-05-29T00:43:10;8.48;;;8.45;;
50417;SDS011;36346;48.280;14.292;2023-05-29T00:45:38;8.32;;;8.32;;
50417;SDS011;36346;48.280;14.292;2023-05-29T00:48:06;8.79;;;8.77;;
50417;SDS011;36346;48.280;14.292;2023-05-29T00:50:35;8.73;;;8.67;;
50417;SDS011;36346;48.280;14.292;2023-05-29T00:53:04;8.61;;;8.56;;
50417;SDS011;36346;48.280;14.292;2023-05-29T00:55:33;8.39;;;8.33;;
50417;SDS011;36346;48.280;14.292;2023-05-29T00:58:02;8.12;;;8.07;;
50417;SDS011;36346;48.280;14.292;2023-05-29T01:00:30;8.06;;;8.04;;
50417;SDS011;36346;48.280;14.292;2023-05-29T01:03:00;8.00;;;7.92;;
50417;SDS011;36346;48.280;14.292;2023-05-29T01:05:33;8.00;;;7.98;;
50417;SDS011;36346;48.280;14.292;2023-05-29T01:08:02;8.26;;;8.22;;
50417;SDS011;36346;48.280;14.292;2023-05-29T01:10:30;8.25;;;8.21;;
50417;SDS011;36346;48.280;14.292;2023-05-29T01:13:02;8.51;;;8.48;;
50417;SDS011;36346;48.280;14.292;2023-05-29T01:15:37;8.11;;;8.06;;
50417;SDS011;36346;48.280;14.292;2023-05-29T01:24:14;7.95;;;7.88;;
50417;SDS011;36346;48.280;14.292;2023-05-29T01:27:07;8.26;;;8.21;;
50417;SDS011;36346;48.280;14.292;2023-05-29T01:29:40;7.85;;;7.85;;
50417;SDS011;36346;48.280;14.292;2023-05-29T01:32:11;8.32;;;8.25;;
50417;SDS011;36346;48.280;14.292;2023-05-29T01:34:38;8.12;;;8.09;;
50417;SDS011;36346;48.280;14.292;2023-05-29T01:37:06;8.13;;;8.06;;
50417;SDS011;36346;48.280;14.292;2023-05-29T01:39:34;8.09;;;8.03;;
50417;SDS011;36346;48.280;14.292;2023-05-29T01:42:02;8.10;;;8.09;;
50417;SDS011;36346;48.280;14.292;2023-05-29T01:44:34;8.18;;;8.16;;
50417;SDS011;36346;48.280;14.292;2023-05-29T01:47:04;8.49;;;8.40;;
50417;SDS011;36346;48.280;14.292;2023-05-29T01:49:34;8.77;;;8.66;;
50417;SDS011;36346;48.280;14.292;2023-05-29T01:52:04;8.80;;;8.71;;
50417;SDS011;36346;48.280;14.292;2023-05-29T01:54:33;8.67;;;8.66;;
50417;SDS011;36346;48.280;14.292;2023-05-29T01:57:01;8.38;;;8.38;;
50417;SDS011;36346;48.280;14.292;2023-05-29T01:59:30;8.79;;;8.78;;
50417;SDS011;36346;48.280;14.292;2023-05-29T02:02:04;8.55;;;8.54;;
50417;SDS011;36346;48.280;14.292;2023-05-29T02:04:33;8.56;;;8.52;;
50417;SDS011;36346;48.280;14.292;2023-05-29T02:07:01;8.80;;;8.72;;
50417;SDS011;36346;48.280;14.292;2023-05-29T02:09:30;8.80;;;8.75;;
50417;SDS011;36346;48.280;14.292;2023-05-29T02:11:58;8.76;;;8.71;;
50417;SDS011;36346;48.280;14.292;2023-05-29T02:14:26;8.94;;;8.91;;
50417;SDS011;36346;48.280;14.292;2023-05-29T02:16:55;8.95;;;8.91;;
50417;SDS011;36346;48.280;14.292;2023-05-29T02:19:24;8.72;;;8.70;;
50417;SDS011;36346;48.280;14.292;2023-05-29T02:21:53;8.42;;;8.38;;
50417;SDS011;36346;48.280;14.292;2023-05-29T02:24:21;8.39;;;8.31;;
50417;SDS011;36346;48.280;14.292;2023-05-29T02:26:49;8.85;;;8.76;;
50417;SDS011;36346;48.280;14.292;2023-05-29T02:29:18;8.82;;;8.75;;
50417;SDS011;36346;48.280;14.292;2023-05-29T02:31:46;8.74;;;8.67;;
50417;SDS011;36346;48.280;14.292;2023-05-29T02:34:14;9.09;;;9.04;;
50417;SDS011;36346;48.280;14.292;2023-05-29T02:36:42;8.80;;;8.75;;
50417;SDS011;36346;48.280;14.292;2023-05-29T02:39:10;9.07;;;9.02;;
50417;SDS011;36346;48.280;14.292;2023-05-29T02:41:38;9.19;;;9.16;;
50417;SDS011;36346;48.280;14.292;2023-05-29T02:44:06;9.79;;;9.74;;
50417;SDS011;36346;48.280;14.292;2023-05-29T02:46:34;8.68;;;8.58;;
50417;SDS011;36346;48.280;14.292;2023-05-29T02:49:02;8.41;;;8.34;;
50417;SDS011;36346;48.280;14.292;2023-05-29T02:51:30;8.88;;;8.85;;
50417;SDS011;36346;48.280;14.292;2023-05-29T02:54:00;8.98;;;8.89;;
50417;SDS011;36346;48.280;14.292;2023-05-29T02:56:27;8.84;;;8.74;;
50417;SDS011;36346;48.280;14.292;2023-05-29T02:58:55;8.62;;;8.58;;
50417;SDS011;36346;48.280;14.292;2023-05-29T03:01:23;9.04;;;8.98;;
50417;SDS011;36346;48.280;14.292;2023-05-29T03:03:51;8.92;;;8.88;;
50417;SDS011;36346;48.280;14.292;2023-05-29T03:06:20;9.42;;;9.32;;
50417;SDS011;36346;48.280;14.292;2023-05-29T03:08:48;9.15;;;9.09;;
50417;SDS011;36346;48.280;14.292;2023-05-29T03:11:17;8.82;;;8.74;;
50417;SDS011;36346;48.280;14.292;2023-05-29T03:13:45;8.78;;;8.73;;
50417;SDS011;36346;48.280;14.292;2023-05-29T03:16:14;8.55;;;8.45;;
50417;SDS011;36346;48.280;14.292;2023-05-29T03:18:44;8.92;;;8.86;;
50417;SDS011;36346;48.280;14.292;2023-05-29T03:21:13;8.63;;;8.59;;
50417;SDS011;36346;48.280;14.292;2023-05-29T03:23:44;8.52;;;8.50;;
50417;SDS011;36346;48.280;14.292;2023-05-29T03:26:13;8.58;;;8.53;;
50417;SDS011;36346;48.280;14.292;2023-05-29T03:28:42;9.41;;;9.36;;
50417;SDS011;36346;48.280;14.292;2023-05-29T03:31:11;8.82;;;8.74;;
50417;SDS011;36346;48.280;14.292;2023-05-29T03:33:39;8.83;;;8.76;;
50417;SDS011;36346;48.280;14.292;2023-05-29T03:36:30;8.15;;;8.13;;
50417;SDS011;36346;48.280;14.292;2023-05-29T03:38:59;8.68;;;8.66;;
50417;SDS011;36346;48.280;14.292;2023-05-29T03:41:28;8.30;;;8.26;;
50417;SDS011;36346;48.280;14.292;2023-05-29T03:43:56;7.91;;;7.87;;
50417;SDS011;36346;48.280;14.292;2023-05-29T03:46:27;8.48;;;8.44;;
50417;SDS011;36346;48.280;14.292;2023-05-29T03:48:55;8.50;;;8.45;;
50417;SDS011;36346;48.280;14.292;2023-05-29T03:51:23;9.03;;;9.02;;
50417;SDS011;36346;48.280;14.292;2023-05-29T03:53:54;12.08;;;12.03;;
50417;SDS011;36346;48.280;14.292;2023-05-29T03:56:22;9.71;;;9.68;;
50417;SDS011;36346;48.280;14.292;2023-05-29T03:58:50;8.54;;;8.52;;
50417;SDS011;36346;48.280;14.292;2023-05-29T04:01:19;8.14;;;8.08;;
50417;SDS011;36346;48.280;14.292;2023-05-29T04:03:48;8.49;;;8.43;;
50417;SDS011;36346;48.280;14.292;2023-05-29T04:06:16;8.50;;;8.46;;
50417;SDS011;36346;48.280;14.292;2023-05-29T04:08:44;8.23;;;8.16;;
50417;SDS011;36346;48.280;14.292;2023-05-29T04:11:12;8.45;;;8.36;;
50417;SDS011;36346;48.280;14.292;2023-05-29T04:13:41;8.15;;;8.13;;
50417;SDS011;36346;48.280;14.292;2023-05-29T04:16:10;8.41;;;8.41;;
50417;SDS011;36346;48.280;14.292;2023-05-29T04:18:38;8.97;;;8.90;;
50417;SDS011;36346;48.280;14.292;2023-05-29T04:21:06;8.16;;;8.12;;
50417;SDS011;36346;48.280;14.292;2023-05-29T04:23:34;8.45;;;8.39;;
50417;SDS011;36346;48.280;14.292;2023-05-29T04:26:02;8.39;;;8.34;;
50417;SDS011;36346;48.280;14.292;2023-05-29T04:28:31;8.07;;;8.02;;
50417;SDS011;36346;48.280;14.292;2023-05-29T04:31:00;8.48;;;8.46;;
50417;SDS011;36346;48.280;14.292;2023-05-29T04:33:29;7.99;;;7.99;;
50417;SDS011;36346;48.280;14.292;2023-05-29T04:35:57;8.18;;;8.14;;
50417;SDS011;36346;48.280;14.292;2023-05-29T04:38:28;8.43;;;8.36;;
50417;SDS011;36346;48.280;14.292;2023-05-29T04:40:57;8.21;;;8.21;;
50417;SDS011;36346;48.280;14.292;2023-05-29T04:43:28;8.21;;;8.16;;
50417;SDS011;36346;48.280;14.292;2023-05-29T04:46:05;9.04;;;9.00;;
50417;SDS011;36346;48.280;14.292;2023-05-29T04:48:36;8.15;;;8.13;;
50417;SDS011;36346;48.280;14.292;2023-05-29T04:51:08;8.65;;;8.60;;
50417;SDS011;36346;48.280;14.292;2023-05-29T04:53:39;8.65;;;8.59;;
50417;SDS011;36346;48.280;14.292;2023-05-29T04:56:09;8.39;;;8.30;;
50417;SDS011;36346;48.280;14.292;2023-05-29T04:58:37;8.76;;;8.66;;
50417;SDS011;36346;48.280;14.292;2023-05-29T05:01:05;8.98;;;8.93;;
50417;SDS011;36346;48.280;14.292;2023-05-29T05:03:37;8.92;;;8.89;;
50417;SDS011;36346;48.280;14.292;2023-05-29T05:06:05;9.16;;;9.08;;
50417;SDS011;36346;48.280;14.292;2023-05-29T05:08:36;8.82;;;8.80;;
50417;SDS011;36346;48.280;14.292;2023-05-29T05:11:04;9.15;;;9.08;;
50417;SDS011;36346;48.280;14.292;2023-05-29T05:13:34;8.98;;;8.94;;
50417;SDS011;36346;48.280;14.292;2023-05-29T05:16:02;8.67;;;8.58;;
50417;SDS011;36346;48.280;14.292;2023-05-29T05:18:31;10.18;;;10.11;;
50417;SDS011;36346;48.280;14.292;2023-05-29T05:21:04;10.01;;;9.91;;
50417;SDS011;36346;48.280;14.292;2023-05-29T05:23:34;8.88;;;8.84;;
50417;SDS011;36346;48.280;14.292;2023-05-29T05:26:22;9.95;;;9.88;;
50417;SDS011;36346;48.280;14.292;2023-05-29T05:28:50;9.37;;;9.33;;
50417;SDS011;36346;48.280;14.292;2023-05-29T05:31:18;10.09;;;10.03;;
50417;SDS011;36346;48.280;14.292;2023-05-29T05:33:46;10.97;;;10.87;;
50417;SDS011;36346;48.280;14.292;2023-05-29T05:36:14;11.04;;;10.92;;
50417;SDS011;36346;48.280;14.292;2023-05-29T05:38:43;9.02;;;8.95;;
50417;SDS011;36346;48.280;14.292;2023-05-29T05:41:10;9.47;;;9.42;;
50417;SDS011;36346;48.280;14.292;2023-05-29T05:43:40;10.46;;;10.41;;
50417;SDS011;36346;48.280;14.292;2023-05-29T05:46:13;9.61;;;9.53;;
50417;SDS011;36346;48.280;14.292;2023-05-29T05:48:42;9.32;;;9.22;;
50417;SDS011;36346;48.280;14.292;2023-05-29T05:51:10;10.03;;;9.92;;
50417;SDS011;36346;48.280;14.292;2023-05-29T05:53:39;10.75;;;10.67;;
50417;SDS011;36346;48.280;14.292;2023-05-29T05:56:07;11.07;;;10.94;;
50417;SDS011;36346;48.280;14.292;2023-05-29T05:58:36;10.87;;;10.81;;
50417;SDS011;36346;48.280;14.292;2023-05-29T06:01:04;10.16;;;10.11;;
50417;SDS011;36346;48.280;14.292;2023-05-29T06:03:32;10.89;;;10.79;;
50417;SDS011;36346;48.280;14.292;2023-05-29T06:06:04;15.98;;;15.85;;
50417;SDS011;36346;48.280;14.292;2023-05-29T06:08:32;16.80;;;16.65;;
50417;SDS011;36346;48.280;14.292;2023-05-29T06:11:01;12.60;;;12.49;;
50417;SDS011;36346;48.280;14.292;2023-05-29T06:13:30;13.16;;;13.08;;
50417;SDS011;36346;48.280;14.292;2023-05-29T06:16:05;13.28;;;13.11;;
50417;SDS011;36346;48.280;14.292;2023-05-29T06:18:33;12.87;;;12.76;;
50417;SDS011;36346;48.280;14.292;2023-05-29T06:21:02;12.62;;;12.53;;
50417;SDS011;36346;48.280;14.292;2023-05-29T06:23:30;13.05;;;13.00;;
50417;SDS011;36346;48.280;14.292;2023-05-29T06:26:00;11.55;;;11.50;;
50417;SDS011;36346;48.280;14.292;2023-05-29T06:28:28;10.73;;;10.70;;
50417;SDS011;36346;48.280;14.292;2023-05-29T06:30:57;11.30;;;11.24;;
50417;SDS011;36346;48.280;14.292;2023-05-29T06:33:25;11.45;;;11.42;;
50417;SDS011;36346;48.280;14.292;2023-05-29T06:35:53;11.97;;;11.82;;
50417;SDS011;36346;48.280;14.292;2023-05-29T06:38:22;12.61;;;12.55;;
50417;SDS011;36346;48.280;14.292;2023-05-29T06:40:50;12.50;;;12.43;;
50417;SDS011;36346;48.280;14.292;2023-05-29T06:43:18;12.88;;;12.75;;
50417;SDS011;36346;48.280;14.292;2023-05-29T06:45:48;12.18;;;12.08;;
50417;SDS011;36346;48.280;14.292;2023-05-29T06:48:17;12.21;;;12.15;;
50417;SDS011;36346;48.280;14.292;2023-05-29T06:50:47;11.76;;;11.69;;
50417;SDS011;36346;48.280;14.292;2023-05-29T06:53:35;11.66;;;11.60;;
50417;SDS011;36346;48.280;14.292;2023-05-29T06:56:04;12.76;;;12.62;;
50417;SDS011;36346;48.280;14.292;2023-05-29T06:58:34;12.39;;;12.34;;
50417;SDS011;36346;48.280;14.292;2023-05-29T07:01:02;15.00;;;14.91;;
50417;SDS011;36346;48.280;14.292;2023-05-29T07:03:36;24.41;;;24.40;;
50417;SDS011;36346;48.280;14.292;2023-05-29T07:06:05;22.22;;;22.22;;
50417;SDS011;36346;48.280;14.292;2023-05-29T07:08:34;25.81;;;25.75;;
50417;SDS011;36346;48.280;14.292;2023-05-29T07:11:02;22.84;;;22.81;;
50417;SDS011;36346;48.280;14.292;2023-05-29T07:13:30;37.53;;;37.16;;
50417;SDS011;36346;48.280;14.292;2023-05-29T07:15:58;24.27;;;24.02;;
50417;SDS011;36346;48.280;14.292;2023-05-29T07:18:34;20.16;;;20.09;;
50417;SDS011;36346;48.280;14.292;2023-05-29T07:21:02;21.06;;;21.03;;
50417;SDS011;36346;48.280;14.292;2023-05-29T07:23:31;24.53;;;24.38;;
50417;SDS011;36346;48.280;14.292;2023-05-29T07:25:59;42.33;;;41.98;;
50417;SDS011;36346;48.280;14.292;2023-05-29T07:28:30;33.30;;;33.09;;
50417;SDS011;36346;48.280;14.292;2023-05-29T07:30:58;26.73;;;26.63;;
50417;SDS011;36346;48.280;14.292;2023-05-29T07:33:25;21.56;;;21.46;;
50417;SDS011;36346;48.280;14.292;2023-05-29T07:35:56;32.23;;;31.94;;
50417;SDS011;36346;48.280;14.292;2023-05-29T07:38:24;33.00;;;32.49;;
50417;SDS011;36346;48.280;14.292;2023-05-29T07:40:53;32.93;;;32.69;;
50417;SDS011;36346;48.280;14.292;2023-05-29T07:43:39;19.78;;;19.60;;
50417;SDS011;36346;48.280;14.292;2023-05-29T07:46:09;18.40;;;18.24;;
50417;SDS011;36346;48.280;14.292;2023-05-29T07:48:40;11.34;;;11.21;;
50417;SDS011;36346;48.280;14.292;2023-05-29T07:51:08;9.82;;;9.77;;
50417;SDS011;36346;48.280;14.292;2023-05-29T07:53:43;9.55;;;9.52;;
50417;SDS011;36346;48.280;14.292;2023-05-29T07:56:12;7.30;;;7.27;;
50417;SDS011;36346;48.280;14.292;2023-05-29T07:58:41;6.30;;;6.29;;
50417;SDS011;36346;48.280;14.292;2023-05-29T08:01:10;5.71;;;5.69;;
50417;SDS011;36346;48.280;14.292;2023-05-29T08:03:38;7.23;;;7.14;;
50417;SDS011;36346;48.280;14.292;2023-05-29T08:06:27;7.41;;;7.32;;
50417;SDS011;36346;48.280;14.292;2023-05-29T08:08:58;6.90;;;6.88;;
50417;SDS011;36346;48.280;14.292;2023-05-29T08:11:26;6.82;;;6.79;;
50417;SDS011;36346;48.280;14.292;2023-05-29T08:13:54;6.86;;;6.81;;
50417;SDS011;36346;48.280;14.292;2023-05-29T08:16:23;5.91;;;5.85;;
50417;SDS011;36346;48.280;14.292;2023-05-29T08:18:52;11.61;;;11.46;;
50417;SDS011;36346;48.280;14.292;2023-05-29T08:21:20;10.47;;;10.36;;
50417;SDS011;36346;48.280;14.292;2023-05-29T08:23:48;6.90;;;6.84;;
50417;SDS011;36346;48.280;14.292;2023-05-29T08:26:15;6.04;;;6.01;;
50417;SDS011;36346;48.280;14.292;2023-05-29T08:28:43;6.32;;;6.29;;
50417;SDS011;36346;48.280;14.292;2023-05-29T08:31:11;6.13;;;6.11;;
50417;SDS011;36346;48.280;14.292;2023-05-29T08:33:39;6.08;;;6.06;;
50417;SDS011;36346;48.280;14.292;2023-05-29T08:36:08;9.78;;;9.73;;
50417;SDS011;36346;48.280;14.292;2023-05-29T08:38:36;7.38;;;7.33;;
50417;SDS011;36346;48.280;14.292;2023-05-29T08:41:04;5.81;;;5.79;;
50417;SDS011;36346;48.280;14.292;2023-05-29T08:43:32;5.97;;;5.96;;
50417;SDS011;36346;48.280;14.292;2023-05-29T08:46:02;5.55;;;5.54;;
50417;SDS011;36346;48.280;14.292;2023-05-29T08:48:31;6.28;;;6.21;;
50417;SDS011;36346;48.280;14.292;2023-05-29T08:50:59;6.01;;;5.97;;
50417;SDS011;36346;48.280;14.292;2023-05-29T08:53:30;5.92;;;5.89;;
50417;SDS011;36346;48.280;14.292;2023-05-29T08:56:00;6.08;;;6.06;;
50417;SDS011;36346;48.280;14.292;2023-05-29T08:58:29;6.48;;;6.47;;
50417;SDS011;36346;48.280;14.292;2023-05-29T09:00:57;6.07;;;6.04;;
50417;SDS011;36346;48.280;14.292;2023-05-29T09:03:25;5.34;;;5.33;;
50417;SDS011;36346;48.280;14.292;2023-05-29T09:05:57;5.48;;;5.45;;
50417;SDS011;36346;48.280;14.292;2023-05-29T09:08:28;5.18;;;5.17;;
50417;SDS011;36346;48.280;14.292;2023-05-29T09:10:57;5.04;;;5.04;;
50417;SDS011;36346;48.280;14.292;2023-05-29T09:13:25;5.08;;;5.08;;
50417;SDS011;36346;48.280;14.292;2023-05-29T09:15:58;5.34;;;5.34;;
50417;SDS011;36346;48.280;14.292;2023-05-29T09:18:30;4.91;;;4.91;;
50417;SDS011;36346;48.280;14.292;2023-05-29T09:20:59;4.70;;;4.68;;
50417;SDS011;36346;48.280;14.292;2023-05-29T09:23:29;5.50;;;5.46;;
50417;SDS011;36346;48.280;14.292;2023-05-29T09:25:57;4.92;;;4.89;;
50417;SDS011;36346;48.280;14.292;2023-05-29T09:28:25;5.57;;;5.55;;
50417;SDS011;36346;48.280;14.292;2023-05-29T09:30:56;5.20;;;5.16;;
50417;SDS011;36346;48.280;14.292;2023-05-29T09:33:24;4.90;;;4.90;;
50417;SDS011;36346;48.280;14.292;2023-05-29T09:35:52;5.62;;;5.61;;
50417;SDS011;36346;48.280;14.292;2023-05-29T09:38:21;5.53;;;5.52;;
50417;SDS011;36346;48.280;14.292;2023-05-29T09:40:51;5.93;;;5.93;;
50417;SDS011;36346;48.280;14.292;2023-05-29T09:43:23;5.42;;;5.42;;
50417;SDS011;36346;48.280;14.292;2023-05-29T09:45:51;5.67;;;5.66;;
50417;SDS011;36346;48.280;14.292;2023-05-29T09:48:22;5.62;;;5.61;;
50417;SDS011;36346;48.280;14.292;2023-05-29T09:50:51;5.53;;;5.51;;
50417;SDS011;36346;48.280;14.292;2023-05-29T09:53:22;5.25;;;5.22;;
50417;SDS011;36346;48.280;14.292;2023-05-29T09:55:52;5.32;;;5.32;;
50417;SDS011;36346;48.280;14.292;2023-05-29T09:58:22;5.71;;;5.70;;
50417;SDS011;36346;48.280;14.292;2023-05-29T10:00:51;5.75;;;5.75;;
50417;SDS011;36346;48.280;14.292;2023-05-29T10:03:20;6.05;;;6.02;;
50417;SDS011;36346;48.280;14.292;2023-05-29T10:05:50;5.56;;;5.51;;
50417;SDS011;36346;48.280;14.292;2023-05-29T10:08:20;5.28;;;5.27;;
50417;SDS011;36346;48.280;14.292;2023-05-29T10:10:52;5.67;;;5.66;;
50417;SDS011;36346;48.280;14.292;2023-05-29T10:13:23;7.03;;;7.01;;
50417;SDS011;36346;48.280;14.292;2023-05-29T10:15:55;6.30;;;6.24;;
50417;SDS011;36346;48.280;14.292;2023-05-29T10:18:24;6.17;;;6.14;;
50417;SDS011;36346;48.280;14.292;2023-05-29T10:20:56;5.35;;;5.32;;
50417;SDS011;36346;48.280;14.292;2023-05-29T10:23:26;5.22;;;5.16;;
50417;SDS011;36346;48.280;14.292;2023-05-29T10:25:57;5.41;;;5.40;;
50417;SDS011;36346;48.280;14.292;2023-05-29T10:28:29;4.99;;;4.99;;
50417;SDS011;36346;48.280;14.292;2023-05-29T10:31:09;5.04;;;5.04;;
50417;SDS011;36346;48.280;14.292;2023-05-29T10:33:50;5.98;;;5.98;;
50417;SDS011;36346;48.280;14.292;2023-05-29T10:36:25;5.08;;;5.08;;
50417;SDS011;36346;48.280;14.292;2023-05-29T10:39:00;5.41;;;5.41;;
50417;SDS011;36346;48.280;14.292;2023-05-29T10:41:28;5.47;;;5.47;;
50417;SDS011;36346;48.280;14.292;2023-05-29T10:43:57;8.82;;;8.81;;
50417;SDS011;36346;48.280;14.292;2023-05-29T10:49:18;12.48;;;12.43;;
50417;SDS011;36346;48.280;14.292;2023-05-29T10:51:47;5.37;;;5.37;;
50417;SDS011;36346;48.280;14.292;2023-05-29T10:54:16;5.28;;;5.27;;
50417;SDS011;36346;48.280;14.292;2023-05-29T10:56:56;5.39;;;5.39;;
50417;SDS011;36346;48.280;14.292;2023-05-29T10:59:26;5.47;;;5.47;;
50417;SDS011;36346;48.280;14.292;2023-05-29T11:01:55;5.62;;;5.62;;
50417;SDS011;36346;48.280;14.292;2023-05-29T11:04:25;5.48;;;5.47;;
50417;SDS011;36346;48.280;14.292;2023-05-29T11:06:54;5.94;;;5.91;;
50417;SDS011;36346;48.280;14.292;2023-05-29T11:09:26;7.02;;;6.98;;
50417;SDS011;36346;48.280;14.292;2023-05-29T11:20:07;5.67;;;5.66;;
50417;SDS011;36346;48.280;14.292;2023-05-29T11:25:19;5.98;;;5.96;;
50417;SDS011;36346;48.280;14.292;2023-05-29T11:27:48;5.90;;;5.87;;
50417;SDS011;36346;48.280;14.292;2023-05-29T11:30:17;5.69;;;5.64;;
50417;SDS011;36346;48.280;14.292;2023-05-29T11:32:46;5.72;;;5.67;;
50417;SDS011;36346;48.280;14.292;2023-05-29T11:35:22;5.35;;;5.34;;
50417;SDS011;36346;48.280;14.292;2023-05-29T11:37:50;5.31;;;5.31;;
50417;SDS011;36346;48.280;14.292;2023-05-29T11:40:18;5.50;;;5.45;;
50417;SDS011;36346;48.280;14.292;2023-05-29T11:42:46;5.41;;;5.38;;
50417;SDS011;36346;48.280;14.292;2023-05-29T11:45:18;5.45;;;5.45;;
50417;SDS011;36346;48.280;14.292;2023-05-29T11:47:55;5.62;;;5.62;;
50417;SDS011;36346;48.280;14.292;2023-05-29T11:50:28;5.65;;;5.64;;
50417;SDS011;36346;48.280;14.292;2023-05-29T11:52:58;5.70;;;5.66;;
50417;SDS011;36346;48.280;14.292;2023-05-29T11:55:27;5.63;;;5.59;;
50417;SDS011;36346;48.280;14.292;2023-05-29T11:57:56;5.25;;;5.25;;
50417;SDS011;36346;48.280;14.292;2023-05-29T12:00:30;5.83;;;5.83;;
50417;SDS011;36346;48.280;14.292;2023-05-29T12:03:06;5.83;;;5.82;;
50417;SDS011;36346;48.280;14.292;2023-05-29T12:05:48;5.30;;;5.26;;
50417;SDS011;36346;48.280;14.292;2023-05-29T12:08:20;5.47;;;5.47;;
50417;SDS011;36346;48.280;14.292;2023-05-29T12:10:50;5.77;;;5.77;;
50417;SDS011;36346;48.280;14.292;2023-05-29T12:13:20;5.50;;;5.49;;
50417;SDS011;36346;48.280;14.292;2023-05-29T12:15:51;5.77;;;5.76;;
50417;SDS011;36346;48.280;14.292;2023-05-29T12:18:23;5.75;;;5.75;;
50417;SDS011;36346;48.280;14.292;2023-05-29T12:20:59;5.67;;;5.67;;
50417;SDS011;36346;48.280;14.292;2023-05-29T12:23:28;5.44;;;5.42;;
50417;SDS011;36346;48.280;14.292;2023-05-29T12:25:58;5.02;;;5.02;;
50417;SDS011;36346;48.280;14.292;2023-05-29T12:28:26;5.70;;;5.69;;
50417;SDS011;36346;48.280;14.292;2023-05-29T12:30:58;5.88;;;5.85;;
50417;SDS011;36346;48.280;14.292;2023-05-29T12:33:28;5.99;;;5.95;;
50417;SDS011;36346;48.280;14.292;2023-05-29T12:36:07;5.79;;;5.74;;
50417;SDS011;36346;48.280;14.292;2023-05-29T12:38:46;5.69;;;5.62;;
50417;SDS011;36346;48.280;14.292;2023-05-29T12:41:21;5.95;;;5.92;;
50417;SDS011;36346;48.280;14.292;2023-05-29T12:43:52;5.75;;;5.75;;
50417;SDS011;36346;48.280;14.292;2023-05-29T12:46:21;6.06;;;6.06;;
50417;SDS011;36346;48.280;14.292;2023-05-29T12:48:49;6.01;;;6.01;;
50417;SDS011;36346;48.280;14.292;2023-05-29T12:51:26;5.79;;;5.79;;
50417;SDS011;36346;48.280;14.292;2023-05-29T12:53:55;5.95;;;5.93;;
50417;SDS011;36346;48.280;14.292;2023-05-29T12:56:25;6.04;;;6.03;;
50417;SDS011;36346;48.280;14.292;2023-05-29T12:58:54;5.93;;;5.91;;
50417;SDS011;36346;48.280;14.292;2023-05-29T13:01:21;5.47;;;5.46;;
50417;SDS011;36346;48.280;14.292;2023-05-29T13:03:51;5.53;;;5.51;;
50417;SDS011;36346;48.280;14.292;2023-05-29T13:06:19;5.73;;;5.68;;
50417;SDS011;36346;48.280;14.292;2023-05-29T13:08:47;5.59;;;5.55;;
50417;SDS011;36346;48.280;14.292;2023-05-29T13:11:15;5.82;;;5.81;;
50417;SDS011;36346;48.280;14.292;2023-05-29T13:13:43;6.23;;;6.23;;
50417;SDS011;36346;48.280;14.292;2023-05-29T13:16:11;6.47;;;6.47;;
50417;SDS011;36346;48.280;14.292;2023-05-29T13:18:39;12.73;;;12.70;;
50417;SDS011;36346;48.280;14.292;2023-05-29T13:21:07;6.36;;;6.36;;
50417;SDS011;36346;48.280;14.292;2023-05-29T13:23:35;5.76;;;5.76;;
50417;SDS011;36346;48.280;14.292;2023-05-29T13:26:03;5.74;;;5.72;;
50417;SDS011;36346;48.280;14.292;2023-05-29T13:28:33;5.88;;;5.85;;
50417;SDS011;36346;48.280;14.292;2023-05-29T13:31:00;5.75;;;5.75;;
50417;SDS011;36346;48.280;14.292;2023-05-29T13:33:28;5.73;;;5.71;;
50417;SDS011;36346;48.280;14.292;2023-05-29T13:35:56;6.01;;;6.01;;
50417;SDS011;36346;48.280;14.292;2023-05-29T13:38:25;6.03;;;6.03;;
50417;SDS011;36346;48.280;14.292;2023-05-29T13:40:53;6.21;;;6.21;;
50417;SDS011;36346;48.280;14.292;2023-05-29T13:43:21;6.17;;;6.17;;
50417;SDS011;36346;48.280;14.292;2023-05-29T13:45:58;6.42;;;6.41;;
50417;SDS011;36346;48.280;14.292;2023-05-29T13:48:26;7.28;;;7.26;;
50417;SDS011;36346;48.280;14.292;2023-05-29T13:50:54;7.19;;;7.16;;
50417;SDS011;36346;48.280;14.292;2023-05-29T13:53:22;7.19;;;7.16;;
50417;SDS011;36346;48.280;14.292;2023-05-29T13:55:50;7.37;;;7.33;;
50417;SDS011;36346;48.280;14.292;2023-05-29T13:58:18;9.19;;;9.18;;
50417;SDS011;36346;48.280;14.292;2023-05-29T14:00:46;6.53;;;6.53;;
50417;SDS011;36346;48.280;14.292;2023-05-29T14:03:15;6.03;;;6.03;;
50417;SDS011;36346;48.280;14.292;2023-05-29T14:05:43;5.89;;;5.89;;
50417;SDS011;36346;48.280;14.292;2023-05-29T14:08:11;5.51;;;5.50;;
50417;SDS011;36346;48.280;14.292;2023-05-29T14:10:39;5.18;;;5.18;;
50417;SDS011;36346;48.280;14.292;2023-05-29T14:13:07;6.66;;;6.66;;
50417;SDS011;36346;48.280;14.292;2023-05-29T14:15:35;13.63;;;13.48;;
50417;SDS011;36346;48.280;14.292;2023-05-29T14:18:06;9.18;;;9.04;;
50417;SDS011;36346;48.280;14.292;2023-05-29T14:20:35;13.12;;;13.05;;
50417;SDS011;36346;48.280;14.292;2023-05-29T14:23:03;7.44;;;7.42;;
50417;SDS011;36346;48.280;14.292;2023-05-29T14:25:32;6.70;;;6.64;;
50417;SDS011;36346;48.280;14.292;2023-05-29T14:28:01;6.00;;;5.99;;
50417;SDS011;36346;48.280;14.292;2023-05-29T14:30:29;6.70;;;6.69;;
50417;SDS011;36346;48.280;14.292;2023-05-29T14:32:57;6.61;;;6.61;;
50417;SDS011;36346;48.280;14.292;2023-05-29T14:35:26;7.51;;;7.51;;
50417;SDS011;36346;48.280;14.292;2023-05-29T14:37:54;9.21;;;9.21;;
50417;SDS011;36346;48.280;14.292;2023-05-29T14:40:22;6.48;;;6.45;;
50417;SDS011;36346;48.280;14.292;2023-05-29T14:42:50;7.34;;;7.30;;
50417;SDS011;36346;48.280;14.292;2023-05-29T14:45:18;6.28;;;6.27;;
50417;SDS011;36346;48.280;14.292;2023-05-29T14:47:46;6.13;;;6.13;;
50417;SDS011;36346;48.280;14.292;2023-05-29T14:50:14;5.67;;;5.65;;
50417;SDS011;36346;48.280;14.292;2023-05-29T14:52:45;6.53;;;6.53;;
50417;SDS011;36346;48.280;14.292;2023-05-29T14:55:15;6.01;;;6.00;;
50417;SDS011;36346;48.280;14.292;2023-05-29T14:57:43;6.02;;;6.02;;
50417;SDS011;36346;48.280;14.292;2023-05-29T15:00:11;6.19;;;6.19;;
50417;SDS011;36346;48.280;14.292;2023-05-29T15:02:39;5.96;;;5.96;;
50417;SDS011;36346;48.280;14.292;2023-05-29T15:05:08;6.11;;;6.11;;